Time;durP1;ratioP1;P1;durP2;ratioP2;P2;SDS_P1;SDS_P2;PMS_P1;PMS_P2;Temp;Humidity;BMP_temperature;BMP_pressure;BME280_temperature;BME280_humidity;BME280_pressure;Samples;Min_cycle;Max_cycle;Signal;HPM_P1;HPM_P2
2022/06/03 00:02:35;;;;;;;4.53;2.92;;;11.10;99.90;;;;;;5049450;28;20137;-65
2022/06/03 00:05:22;;;;;;;4.10;3.42;;;11.00;99.90;;;;;;5050827;28;20501;-65
2022/06/03 00:08:06;;;;;;;3.25;2.95;;;11.00;99.90;;;;;;5052384;28;20128;-65
2022/06/03 00:10:58;;;;;;;3.70;3.30;;;11.00;99.90;;;;;;5050538;28;20431;-66
2022/06/03 00:13:48;;;;;;;4.65;3.50;;;11.00;99.90;;;;;;5051268;28;20096;-65
2022/06/03 00:16:32;;;;;;;5.53;3.47;;;11.00;99.90;;;;;;5054057;28;20183;-65
2022/06/03 00:19:22;;;;;;;3.75;3.45;;;10.90;99.90;;;;;;5048951;28;20178;-66
2022/06/03 00:22:19;;;;;;;4.78;3.30;;;10.90;99.90;;;;;;5050947;28;20037;-65
2022/06/03 00:25:24;;;;;;;3.65;3.15;;;10.90;99.90;;;;;;5048879;28;20048;-65
2022/06/03 00:28:22;;;;;;;4.05;3.63;;;10.80;99.90;;;;;;5049796;28;20044;-65
2022/06/03 00:31:01;;;;;;;3.50;3.20;;;10.80;99.90;;;;;;5051101;28;20044;-65
2022/06/03 00:33:59;;;;;;;5.72;3.45;;;11.00;99.90;;;;;;5054980;28;20032;-65
2022/06/03 00:36:40;;;;;;;5.82;3.90;;;10.80;99.90;;;;;;5048647;28;20778;-66
2022/06/03 00:39:23;;;;;;;6.55;3.05;;;10.80;99.90;;;;;;5048432;28;20045;-65
2022/06/03 00:42:06;;;;;;;7.25;3.50;;;10.70;99.90;;;;;;5048681;28;20128;-66
2022/06/03 00:44:59;;;;;;;4.38;3.80;;;10.70;99.90;;;;;;5051142;28;20440;-65
2022/06/03 00:47:59;;;;;;;5.43;3.50;;;10.70;99.90;;;;;;5059856;28;20048;-65
2022/06/03 00:50:27;;;;;;;3.85;3.40;;;10.70;99.90;;;;;;5050097;28;20099;-66
2022/06/03 00:53:02;;;;;;;5.13;3.42;;;10.60;99.90;;;;;;5067447;28;20512;-65
2022/06/03 00:55:40;;;;;;;5.38;3.90;;;10.60;99.90;;;;;;5049735;28;20076;-65
2022/06/03 00:58:08;;;;;;;9.88;4.72;;;10.60;99.90;;;;;;5047686;28;20367;-65
2022/06/03 01:00:57;;;;;;;4.40;3.67;;;10.60;99.90;;;;;;5049088;28;20055;-65
2022/06/03 01:03:28;;;;;;;5.95;4.25;;;10.60;99.90;;;;;;5047985;28;20044;-65
2022/06/03 01:06:16;;;;;;;3.80;3.50;;;10.60;99.90;;;;;;5048174;28;20098;-65
2022/06/03 01:09:01;;;;;;;5.07;3.75;;;10.60;99.90;;;;;;5053584;28;20119;-65
2022/06/03 01:12:05;;;;;;;6.00;4.60;;;10.60;99.90;;;;;;5054857;28;20041;-65
2022/06/03 01:14:37;;;;;;;4.78;3.90;;;10.60;99.90;;;;;;5050702;28;20137;-66
2022/06/03 01:17:12;;;;;;;5.80;3.63;;;10.60;99.90;;;;;;5048971;28;20057;-65
2022/06/03 01:20:01;;;;;;;4.72;4.20;;;10.60;99.90;;;;;;5050992;28;20443;-65
2022/06/03 01:22:45;;;;;;;4.38;3.97;;;10.60;99.90;;;;;;5052071;28;20048;-65
2022/06/03 01:25:21;;;;;;;6.35;4.60;;;10.50;99.90;;;;;;5054708;28;20036;-65
2022/06/03 01:27:56;;;;;;;5.63;4.30;;;10.50;99.90;;;;;;5047117;28;20091;-65
2022/06/03 01:31:05;;;;;;;6.32;4.70;;;10.50;99.90;;;;;;5050539;28;20041;-65
2022/06/03 01:34:03;;;;;;;7.60;4.57;;;10.50;99.90;;;;;;5051302;28;20677;-66
2022/06/03 01:36:42;;;;;;;5.47;4.90;;;10.50;99.90;;;;;;5040010;28;20152;-66
2022/06/03 01:39:14;;;;;;;5.05;4.28;;;11.00;99.90;;;;;;5050842;28;20505;-66
2022/06/03 01:42:07;;;;;;;5.10;4.60;;;10.40;99.90;;;;;;5050879;28;20397;-65
2022/06/03 01:44:58;;;;;;;6.32;5.40;;;10.50;99.90;;;;;;5052834;28;20082;-65
2022/06/03 01:47:48;;;;;;;4.65;4.25;;;10.40;99.90;;;;;;5050802;28;20161;-65
2022/06/03 01:50:27;;;;;;;5.18;4.63;;;10.40;99.90;;;;;;5050753;28;20053;-65
2022/06/03 01:53:06;;;;;;;7.60;5.03;;;10.40;99.90;;;;;;5046832;28;20048;-66
2022/06/03 01:55:46;;;;;;;8.27;4.75;;;10.40;99.90;;;;;;5047993;28;20053;-65
2022/06/03 01:58:48;;;;;;;7.00;4.82;;;10.40;99.90;;;;;;5051667;28;20036;-65
2022/06/03 02:01:35;;;;;;;7.15;4.80;;;10.40;99.90;;;;;;5052013;28;20049;-65
2022/06/03 02:04:20;;;;;;;7.07;4.57;;;10.30;99.90;;;;;;5050685;28;20049;-65
2022/06/03 02:07:03;;;;;;;10.02;4.78;;;10.30;99.90;;;;;;5048286;28;20041;-65
2022/06/03 02:09:48;;;;;;;5.70;4.97;;;10.30;99.90;;;;;;5050227;28;20056;-65
2022/06/03 02:13:00;;;;;;;5.47;4.97;;;10.30;99.90;;;;;;5052616;28;20080;-65
2022/06/03 02:15:35;;;;;;;5.00;4.50;;;10.30;99.90;;;;;;5053133;28;20391;-65
2022/06/03 02:18:11;;;;;;;6.05;4.30;;;10.30;99.90;;;;;;5048638;28;20071;-65
2022/06/03 02:21:01;;;;;;;6.63;5.15;;;10.30;99.90;;;;;;5050479;28;20523;-65
2022/06/03 02:23:32;;;;;;;5.65;4.93;;;10.30;99.90;;;;;;5049983;28;20091;-65
2022/06/03 02:26:48;;;;;;;6.10;5.50;;;10.30;99.90;;;;;;5052654;28;20056;-65
2022/06/03 02:33:17;;;;;;;7.13;4.60;;;10.20;99.90;;;;;;5052979;28;20116;-65
2022/06/03 02:36:20;;;;;;;4.88;4.47;;;10.20;99.90;;;;;;5038639;28;20110;-65
2022/06/03 02:39:17;;;;;;;5.47;4.90;;;10.20;99.90;;;;;;5055720;28;20627;-65
2022/06/03 02:41:59;;;;;;;7.20;4.57;;;10.20;99.90;;;;;;5059614;28;20068;-66
2022/06/03 02:44:24;;;;;;;9.80;5.27;;;10.20;99.90;;;;;;5054038;28;20151;-65
2022/06/03 02:47:23;;;;;;;6.63;4.45;;;10.30;99.90;;;;;;5052694;28;20052;-66
2022/06/03 02:50:16;;;;;;;5.97;4.47;;;10.10;99.90;;;;;;5054320;28;20409;-65
2022/06/03 02:53:06;;;;;;;5.82;5.13;;;10.10;99.90;;;;;;5049612;28;20513;-65
2022/06/03 02:56:03;;;;;;;7.35;5.20;;;10.00;99.90;;;;;;5063426;28;20098;-65
2022/06/03 02:59:08;;;;;;;5.82;5.22;;;10.00;99.90;;;;;;5053986;28;20051;-66
2022/06/03 03:02:04;;;;;;;5.78;5.10;;;10.10;99.90;;;;;;5050088;28;20079;-65
2022/06/03 03:04:35;;;;;;;6.78;4.57;;;10.00;99.90;;;;;;5054015;28;20606;-65
2022/06/03 03:07:19;;;;;;;8.98;5.60;;;10.00;99.90;;;;;;5050150;28;20052;-65
2022/06/03 03:10:22;;;;;;;5.53;5.00;;;10.10;99.90;;;;;;5053815;28;20089;-65
2022/06/03 03:13:30;;;;;;;7.00;5.20;;;10.00;99.90;;;;;;5039903;28;20056;-65
2022/06/03 03:16:26;;;;;;;6.18;5.35;;;10.00;99.90;;;;;;5051270;28;20530;-65
2022/06/03 03:19:26;;;;;;;5.13;4.63;;;10.00;99.90;;;;;;5053051;28;20064;-65
2022/06/03 03:22:45;;;;;;;6.82;5.13;;;10.00;99.90;;;;;;5052622;28;20056;-65
2022/06/03 03:25:14;;;;;;;6.03;4.75;;;10.00;99.90;;;;;;5023312;28;20049;-66
2022/06/03 03:28:03;;;;;;;7.25;4.95;;;9.90;99.90;;;;;;5051140;28;20071;-65
2022/06/03 03:30:53;;;;;;;6.22;4.95;;;10.00;99.90;;;;;;5053718;28;20077;-66
2022/06/03 03:33:52;;;;;;;7.03;5.20;;;9.90;99.90;;;;;;5051533;28;20045;-65
2022/06/03 03:36:38;;;;;;;8.93;5.95;;;10.00;99.90;;;;;;5052678;28;20040;-65
2022/06/03 03:39:35;;;;;;;9.60;5.32;;;9.90;99.90;;;;;;5051922;28;20063;-65
2022/06/03 03:42:01;;;;;;;8.82;5.40;;;10.00;99.90;;;;;;5048613;28;20087;-65
2022/06/03 03:44:49;;;;;;;6.20;5.60;;;10.00;99.90;;;;;;5055031;28;20072;-65
2022/06/03 03:47:33;;;;;;;8.13;4.97;;;10.00;99.90;;;;;;5055900;28;20048;-65
2022/06/03 03:50:18;;;;;;;7.93;5.40;;;10.00;99.90;;;;;;5051337;28;20143;-65
2022/06/03 03:52:47;;;;;;;6.07;5.47;;;10.00;99.90;;;;;;5050389;28;20047;-66
2022/06/03 03:55:31;;;;;;;6.88;4.88;;;10.00;99.90;;;;;;5057733;28;20044;-66
2022/06/03 03:58:16;;;;;;;8.70;6.05;;;10.00;99.90;;;;;;5050038;28;20448;-65
2022/06/03 04:01:11;;;;;;;6.07;4.78;;;10.00;99.90;;;;;;5052504;28;20048;-65
2022/06/03 04:03:53;;;;;;;8.32;5.78;;;10.00;99.90;;;;;;5050996;28;20048;-65
2022/06/03 04:06:28;;;;;;;;;;;10.10;99.90;;;;;;5048875;28;20053;-65
2022/06/03 04:09:18;;;;;;;7.03;4.43;;;10.10;99.90;;;;;;5049645;28;19932;-65
2022/06/03 04:12:19;;;;;;;15.18;5.63;;;10.10;99.90;;;;;;5050348;28;20049;-65
2022/06/03 04:15:26;;;;;;;11.30;6.22;;;10.10;99.90;;;;;;5046916;28;20053;-65
2022/06/03 04:17:51;;;;;;;8.05;5.68;;;10.20;99.90;;;;;;5050897;28;20056;-65
2022/06/03 04:20:38;;;;;;;6.38;5.03;;;10.20;99.90;;;;;;5052571;28;20036;-65
2022/06/03 04:23:28;;;;;;;7.57;5.13;;;10.20;99.90;;;;;;5047682;28;20064;-65
2022/06/03 04:26:18;;;;;;;9.15;4.85;;;10.30;99.90;;;;;;5053526;28;20091;-66
2022/06/03 04:29:39;;;;;;;7.93;5.80;;;10.30;99.90;;;;;;5053119;28;20055;-66
2022/06/03 04:32:04;;;;;;;4.90;4.47;;;10.30;99.90;;;;;;5052275;28;20064;-65
2022/06/03 04:35:05;;;;;;;6.38;4.90;;;10.40;99.90;;;;;;5052757;28;20497;-65
2022/06/03 04:38:07;;;;;;;9.38;5.30;;;10.40;99.90;;;;;;5050836;28;20048;-65
2022/06/03 04:41:11;;;;;;;5.90;4.88;;;10.50;99.90;;;;;;5050949;28;20291;-65
2022/06/03 04:44:18;;;;;;;5.70;4.18;;;10.50;99.90;;;;;;5051156;28;20467;-65
2022/06/03 04:47:06;;;;;;;6.43;4.97;;;10.60;99.90;;;;;;5020230;28;20537;-65
2022/06/03 04:50:09;;;;;;;7.35;5.18;;;10.60;99.90;;;;;;5051248;28;20223;-65
2022/06/03 04:52:53;;;;;;;5.97;5.35;;;10.60;99.90;;;;;;5050883;28;20052;-65
2022/06/03 04:56:12;;;;;;;6.15;4.93;;;10.70;99.90;;;;;;5060667;28;20079;-66
2022/06/03 04:59:01;;;;;;;6.45;5.43;;;10.70;99.90;;;;;;5053027;28;20397;-65
2022/06/03 05:01:41;;;;;;;5.28;4.47;;;10.70;99.90;;;;;;5033497;28;20531;-65
2022/06/03 05:04:09;;;;;;;6.32;5.28;;;10.80;99.90;;;;;;5050283;28;20193;-65
2022/06/03 05:07:13;;;;;;;8.63;5.75;;;10.80;99.90;;;;;;5053253;28;20048;-65
2022/06/03 05:10:22;;;;;;;7.72;5.10;;;10.90;99.90;;;;;;5052549;28;20492;-65
2022/06/03 05:13:08;;;;;;;8.02;4.82;;;10.90;99.90;;;;;;5051063;28;20472;-65
2022/06/03 05:15:33;;;;;;;6.55;5.13;;;11.00;99.90;;;;;;5051394;28;20075;-65
2022/06/03 05:18:16;;;;;;;5.97;4.38;;;11.00;99.90;;;;;;5052195;28;20060;-66
2022/06/03 05:21:22;;;;;;;5.43;4.60;;;11.10;99.90;;;;;;5050710;28;20102;-65
2022/06/03 05:23:48;;;;;;;5.13;4.63;;;11.10;99.90;;;;;;5050474;28;20054;-65
2022/06/03 05:26:41;;;;;;;6.53;5.75;;;11.10;99.90;;;;;;5050685;28;20401;-65
2022/06/03 05:29:39;;;;;;;8.80;4.78;;;11.20;99.90;;;;;;5050298;28;20392;-65
2022/06/03 05:32:13;;;;;;;7.30;5.35;;;11.30;99.90;;;;;;5050019;28;20095;-65
2022/06/03 05:35:03;;;;;;;8.10;5.68;;;11.40;99.90;;;;;;5050679;28;20574;-65
2022/06/03 05:37:38;;;;;;;6.15;4.88;;;11.50;99.90;;;;;;5053230;28;20409;-65
2022/06/03 05:40:07;;;;;;;5.38;4.57;;;11.50;99.90;;;;;;5049542;28;20516;-65
2022/06/03 05:43:11;;;;;;;8.07;5.05;;;11.60;99.90;;;;;;5050720;28;20044;-66
2022/06/03 05:45:42;;;;;;;6.05;5.45;;;11.70;99.90;;;;;;5032161;28;20474;-65
2022/06/03 05:48:18;;;;;;;6.13;5.22;;;11.80;99.90;;;;;;5051859;28;20107;-65
2022/06/03 05:51:06;;;;;;;8.02;6.20;;;11.90;99.90;;;;;;5054066;28;20441;-65
2022/06/03 05:53:56;;;;;;;7.40;5.70;;;12.00;99.90;;;;;;5050776;28;20040;-65
2022/06/03 05:56:49;;;;;;;5.60;5.03;;;12.00;99.90;;;;;;5047726;28;20134;-65
2022/06/03 05:59:40;;;;;;;5.50;4.65;;;12.10;99.90;;;;;;5048441;28;20049;-65
2022/06/03 06:02:31;;;;;;;5.40;4.90;;;12.10;99.90;;;;;;5047886;28;20347;-65
2022/06/03 06:04:57;;;;;;;7.88;4.45;;;12.20;99.90;;;;;;5056114;28;20057;-65
2022/06/03 06:07:53;;;;;;;7.32;5.10;;;12.30;99.90;;;;;;5037601;28;20055;-65
2022/06/03 06:10:43;;;;;;;6.65;3.95;;;12.40;99.90;;;;;;5049529;28;20474;-65
2022/06/03 06:13:27;;;;;;;5.35;4.07;;;12.50;99.90;;;;;;5052819;28;20097;-66
2022/06/03 06:16:04;;;;;;;5.82;4.05;;;12.50;99.90;;;;;;5057328;28;20061;-65
2022/06/03 06:18:44;;;;;;;4.53;3.55;;;12.60;99.90;;;;;;5055961;28;20528;-65
2022/06/03 06:21:37;;;;;;;7.80;4.13;;;12.70;99.90;;;;;;5049101;28;20049;-65
2022/06/03 06:24:57;;;;;;;5.00;3.75;;;12.80;99.90;;;;;;5051578;28;20067;-65
2022/06/03 06:27:59;;;;;;;4.15;3.70;;;12.80;99.90;;;;;;5020428;28;20042;-66
2022/06/03 06:30:57;;;;;;;3.58;3.22;;;12.90;99.90;;;;;;5025931;28;20072;-65
2022/06/03 06:33:44;;;;;;;4.68;3.55;;;13.00;99.90;;;;;;5052222;28;20048;-65
2022/06/03 06:36:18;;;;;;;7.32;3.60;;;13.00;99.90;;;;;;5052918;28;20137;-66
2022/06/03 06:39:02;;;;;;;2.50;2.30;;;13.30;99.90;;;;;;5052983;28;20049;-65
2022/06/03 06:41:37;;;;;;;5.85;2.30;;;13.20;99.90;;;;;;5053731;28;20070;-65
2022/06/03 06:44:10;;;;;;;4.13;2.67;;;13.30;99.90;;;;;;5056966;28;20128;-66
2022/06/03 06:46:47;;;;;;;4.65;2.53;;;13.40;99.90;;;;;;5051219;28;20051;-66
2022/06/03 06:49:28;;;;;;;4.78;2.40;;;13.50;99.90;;;;;;5057000;28;20095;-65
2022/06/03 06:52:03;;;;;;;5.03;2.67;;;13.50;99.90;;;;;;5052076;28;20052;-65
2022/06/03 06:54:37;;;;;;;3.85;2.38;;;13.60;99.90;;;;;;5053126;28;20076;-65
2022/06/03 06:57:09;;;;;;;4.03;2.97;;;13.70;99.90;;;;;;5055077;28;20134;-66
2022/06/03 07:00:04;;;;;;;2.45;2.22;;;13.80;99.90;;;;;;5052332;28;20053;-66
2022/06/03 07:02:32;;;;;;;3.17;2.38;;;13.90;99.90;;;;;;5052812;28;20091;-65
2022/06/03 07:05:37;;;;;;;2.40;2.20;;;14.00;99.90;;;;;;5053037;28;20041;-65
2022/06/03 07:08:46;;;;;;;3.13;1.48;;;14.00;99.90;;;;;;5038266;28;20097;-65
2022/06/03 07:11:16;;;;;;;6.38;2.10;;;14.10;99.90;;;;;;5048520;28;20057;-65
2022/06/03 07:13:55;;;;;;;3.80;1.58;;;14.20;99.90;;;;;;5047454;28;20550;-65
2022/06/03 07:19:58;;;;;;;2.92;1.75;;;14.40;99.90;;;;;;5056314;28;20123;-65
2022/06/03 07:22:56;;;;;;;2.90;1.60;;;14.50;99.90;;;;;;5047528;28;20061;-66
2022/06/03 07:25:24;;;;;;;3.80;1.50;;;14.60;99.90;;;;;;5049057;28;20063;-65
2022/06/03 07:28:09;;;;;;;3.40;1.60;;;14.70;99.90;;;;;;5045299;28;20516;-65
2022/06/03 07:30:54;;;;;;;2.33;1.35;;;14.80;99.90;;;;;;5050291;28;20087;-65
2022/06/03 07:33:31;;;;;;;2.47;1.42;;;14.90;99.90;;;;;;5046915;28;20049;-65
2022/06/03 07:36:01;;;;;;;1.80;1.40;;;15.20;99.90;;;;;;5050640;28;20052;-65
2022/06/03 07:38:59;;;;;;;1.92;1.40;;;15.00;99.90;;;;;;5053838;28;20041;-65
2022/06/03 07:41:50;;;;;;;1.83;1.17;;;15.20;99.90;;;;;;5032724;28;20067;-68
2022/06/03 07:44:24;;;;;;;1.20;1.10;;;15.20;99.90;;;;;;5049508;28;20045;-69
2022/06/03 07:46:54;;;;;;;2.22;1.20;;;15.30;99.90;;;;;;5056792;28;20049;-67
2022/06/03 07:49:23;;;;;;;1.27;0.98;;;15.40;99.90;;;;;;5054840;28;20049;-68
2022/06/03 07:51:54;;;;;;;3.13;1.42;;;15.50;99.90;;;;;;5065667;28;20574;-68
2022/06/03 07:54:27;;;;;;;1.05;0.95;;;15.60;99.90;;;;;;5052722;28;20091;-68
2022/06/03 07:57:01;;;;;;;1.15;1.05;;;15.70;99.90;;;;;;5062898;28;20151;-68
2022/06/03 07:59:31;;;;;;;1.85;1.27;;;15.70;99.90;;;;;;5047178;28;20593;-68
2022/06/03 08:02:20;;;;;;;1.00;0.85;;;15.90;99.90;;;;;;5050845;28;20398;-68
2022/06/03 08:04:48;;;;;;;2.60;1.10;;;15.90;99.90;;;;;;5058510;28;20554;-70
2022/06/03 08:13:01;;;;;;;1.17;0.90;;;16.10;99.90;;;;;;5046536;28;20460;-68
2022/06/03 08:15:30;;;;;;;1.80;0.90;;;16.30;99.90;;;;;;5045343;28;20057;-68
2022/06/03 08:17:56;;;;;;;3.00;0.70;;;16.40;99.90;;;;;;5044939;28;20099;-68
2022/06/03 08:20:25;;;;;;;3.80;1.10;;;16.40;99.90;;;;;;5046593;28;20037;-68
2022/06/03 08:22:52;;;;;;;1.77;0.85;;;16.50;99.90;;;;;;5045748;28;20743;-68
2022/06/03 08:25:23;;;;;;;3.10;0.68;;;16.50;99.90;;;;;;5045221;28;20037;-69
2022/06/03 08:27:50;;;;;;;4.78;0.93;;;16.50;99.90;;;;;;5045964;28;20099;-68
2022/06/03 08:30:23;;;;;;;1.67;1.13;;;16.70;99.90;;;;;;5046009;28;20112;-68
2022/06/03 08:33:09;;;;;;;1.23;0.80;;;16.70;99.90;;;;;;5046164;28;20125;-68
2022/06/03 08:35:38;;;;;;;1.73;1.10;;;16.80;99.90;;;;;;5050894;28;20037;-68
2022/06/03 08:38:23;;;;;;;4.68;1.40;;;16.90;99.90;;;;;;5048845;28;20114;-69
2022/06/03 08:41:18;;;;;;;2.55;0.90;;;16.90;99.90;;;;;;5058104;28;20088;-68
2022/06/03 08:44:08;;;;;;;2.55;0.90;;;17.00;99.90;;;;;;5064292;28;20063;-69
2022/06/03 08:46:59;;;;;;;1.55;0.80;;;17.10;99.90;;;;;;5050222;28;20459;-69
2022/06/03 08:49:30;;;;;;;1.20;1.10;;;17.20;99.90;;;;;;5021660;28;20060;-69
2022/06/03 08:52:05;;;;;;;1.48;1.13;;;17.20;99.90;;;;;;5047079;28;20045;-70
2022/06/03 08:54:45;;;;;;;1.20;1.10;;;17.30;99.90;;;;;;5065085;28;20051;-68
2022/06/03 08:57:20;;;;;;;0.80;0.80;;;17.30;99.90;;;;;;5049953;28;20056;-68
2022/06/03 09:00:06;;;;;;;4.47;1.08;;;17.40;99.90;;;;;;5045816;28;20041;-69
2022/06/03 09:02:59;;;;;;;0.93;0.80;;;17.50;99.90;;;;;;5052163;28;20509;-69
2022/06/03 09:05:29;;;;;;;2.15;1.30;;;17.50;99.90;;;;;;5051055;28;20102;-69
2022/06/03 09:08:02;;;;;;;1.35;1.25;;;17.50;99.90;;;;;;5046143;28;20049;-68
2022/06/03 09:10:40;;;;;;;1.27;1.15;;;17.60;99.90;;;;;;5064876;28;20040;-68
2022/06/03 09:13:44;;;;;;;2.70;1.58;;;17.60;99.90;;;;;;5050122;28;20235;-69
2022/06/03 09:16:14;;;;;;;2.72;1.20;;;17.70;99.90;;;;;;5039554;28;20413;-69
2022/06/03 09:18:42;;;;;;;2.97;1.20;;;17.80;99.90;;;;;;5051908;28;20052;-68
2022/06/03 09:21:14;;;;;;;1.77;1.40;;;17.90;99.90;;;;;;5045265;28;20044;-68
2022/06/03 09:23:46;;;;;;;1.60;1.10;;;17.90;99.90;;;;;;5062288;28;20129;-69
2022/06/03 09:26:23;;;;;;;4.93;1.88;;;18.00;99.90;;;;;;5055031;28;20056;-67
2022/06/03 09:28:49;;;;;;;2.92;1.40;;;18.10;99.90;;;;;;5048875;28;20055;-69
2022/06/03 09:31:15;;;;;;;5.28;1.77;;;18.00;99.90;;;;;;5059386;28;20041;-70
2022/06/03 09:33:45;;;;;;;2.28;1.58;;;18.00;99.90;;;;;;5065205;28;20053;-70
2022/06/03 09:36:15;;;;;;;1.73;1.20;;;18.10;99.90;;;;;;5065954;28;20115;-69
2022/06/03 09:38:53;;;;;;;2.83;1.20;;;18.30;99.90;;;;;;5068348;28;20051;-69
2022/06/03 09:41:24;;;;;;;2.40;1.50;;;18.30;99.90;;;;;;5068948;28;20059;-69
2022/06/03 09:43:53;;;;;;;3.17;1.50;;;18.40;99.90;;;;;;5069911;28;20080;-69
2022/06/03 09:46:22;;;;;;;2.40;1.40;;;18.50;99.90;;;;;;5068510;28;20501;-69
2022/06/03 09:48:48;;;;;;;1.42;1.17;;;18.50;99.90;;;;;;5067670;28;20125;-70
2022/06/03 09:51:19;;;;;;;1.65;1.27;;;18.50;99.90;;;;;;5070244;28;20497;-71
2022/06/03 09:53:46;;;;;;;1.58;1.48;;;18.60;99.90;;;;;;5070149;28;20051;-70
2022/06/03 09:56:23;;;;;;;1.70;1.60;;;18.80;99.90;;;;;;5069403;28;20044;-70
2022/06/03 09:58:55;;;;;;;2.15;1.52;;;18.60;99.90;;;;;;5068203;28;20113;-70
2022/06/03 10:01:21;;;;;;;3.75;1.60;;;18.70;99.90;;;;;;5068588;28;20045;-70
2022/06/03 10:03:50;;;;;;;2.05;1.50;;;18.80;99.90;;;;;;5069272;28;20045;-72
2022/06/03 10:14:29;;;;;;;1.88;1.20;;;19.10;99.90;;;;;;5068072;28;20048;-70
2022/06/03 10:16:54;;;;;;;2.13;1.58;;;19.20;99.90;;;;;;5068008;28;20424;-70
2022/06/03 10:19:21;;;;;;;2.40;1.70;;;19.30;99.90;;;;;;5060347;28;20128;-70
2022/06/03 10:21:54;;;;;;;1.95;1.60;;;19.40;99.90;;;;;;5056472;28;20610;-73
2022/06/03 10:24:34;;;;;;;2.65;1.63;;;19.40;99.90;;;;;;5058332;28;20091;-71
2022/06/03 10:27:01;;;;;;;2.03;1.50;;;19.40;99.90;;;;;;5048917;28;20094;-70
2022/06/03 10:29:27;;;;;;;4.35;1.38;;;19.40;99.90;;;;;;5052274;28;20899;-69
2022/06/03 10:31:59;;;;;;;2.65;1.58;;;19.50;99.90;;;;;;5048248;28;20103;-69
2022/06/03 10:34:27;;;;;;;3.22;1.52;;;19.40;99.90;;;;;;5054224;28;20040;-71
2022/06/03 10:36:55;;;;;;;2.05;1.55;;;19.50;99.90;;;;;;5051914;28;20045;-70
2022/06/03 10:39:27;;;;;;;2.13;1.23;;;19.60;99.90;;;;;;5058491;28;20516;-69
2022/06/03 10:41:55;;;;;;;1.60;1.10;;;19.60;99.90;;;;;;5057219;28;20053;-70
2022/06/03 10:44:23;;;;;;;3.30;1.40;;;19.70;99.90;;;;;;5045885;28;20059;-70
2022/06/03 10:47:06;;;;;;;1.98;1.35;;;19.80;99.90;;;;;;5054386;28;20468;-70
2022/06/03 10:49:36;;;;;;;1.63;1.45;;;20.00;99.90;;;;;;5046772;28;20052;-70
2022/06/03 11:03:29;;;;;;;3.90;1.17;;;20.20;97.50;;;;;;5053605;28;20424;-70
2022/06/03 11:05:55;;;;;;;1.27;1.17;;;20.20;99.90;;;;;;5050782;28;20059;-71
2022/06/03 11:08:22;;;;;;;3.10;1.60;;;20.10;99.60;;;;;;5046831;28;20037;-70
2022/06/03 11:10:51;;;;;;;1.88;1.38;;;20.00;98.80;;;;;;5051517;28;20504;-71
2022/06/03 11:13:41;;;;;;;1.85;1.42;;;19.90;98.90;;;;;;5066449;28;20052;-73
2022/06/03 11:16:24;;;;;;;2.35;1.70;;;19.90;98.50;;;;;;5067876;28;20270;-70
2022/06/03 11:18:49;;;;;;;2.83;1.40;;;19.90;99.30;;;;;;5067414;28;20052;-71
2022/06/03 11:21:24;;;;;;;2.70;1.38;;;20.00;99.90;;;;;;5068591;28;20109;-72
2022/06/03 11:23:51;;;;;;;3.42;1.50;;;20.10;97.90;;;;;;5067927;28;20147;-71
2022/06/03 11:26:17;;;;;;;2.20;1.25;;;20.10;98.20;;;;;;5050093;28;20102;-72
2022/06/03 11:28:51;;;;;;;1.40;1.30;;;20.10;99.10;;;;;;5057314;28;20033;-71
2022/06/03 11:31:30;;;;;;;2.92;1.27;;;20.20;98.20;;;;;;5057528;28;20463;-73
2022/06/03 11:34:11;;;;;;;3.17;1.60;;;20.30;95.60;;;;;;5050249;28;20040;-71
2022/06/03 11:36:54;;;;;;;2.50;1.35;;;20.30;97.00;;;;;;5055855;28;20314;-70
2022/06/03 11:39:29;;;;;;;1.60;1.30;;;20.30;97.60;;;;;;5056136;28;20059;-71
2022/06/03 11:42:11;;;;;;;2.13;1.50;;;20.30;96.40;;;;;;5046352;28;20085;-70
2022/06/03 11:44:51;;;;;;;5.35;1.88;;;20.30;95.30;;;;;;5047340;28;20320;-71
2022/06/03 11:47:23;;;;;;;2.22;1.13;;;20.40;94.70;;;;;;5050411;28;20049;-72
2022/06/03 11:49:50;;;;;;;1.48;1.15;;;20.60;94.90;;;;;;5057540;28;20619;-70
2022/06/03 11:52:17;;;;;;;2.47;1.30;;;20.60;95.90;;;;;;5047368;28;20094;-71
2022/06/03 11:54:42;;;;;;;2.28;1.27;;;19.90;95.50;;;;;;5049041;28;20036;-70
2022/06/03 11:57:10;;;;;;;3.47;1.60;;;20.80;94.60;;;;;;5048245;28;20044;-70
2022/06/03 11:59:58;;;;;;;4.70;1.70;;;20.80;92.80;;;;;;5048080;28;20037;-70
2022/06/03 12:02:38;;;;;;;2.80;1.15;;;20.70;91.00;;;;;;5050630;28;20064;-71
2022/06/03 12:05:21;;;;;;;2.40;1.20;;;20.60;92.10;;;;;;5046078;28;20041;-70
2022/06/03 12:07:56;;;;;;;3.10;1.40;;;20.70;92.20;;;;;;5050561;28;20059;-71
2022/06/03 12:10:52;;;;;;;2.63;1.45;;;20.70;91.20;;;;;;5051689;28;20052;-71
2022/06/03 12:13:27;;;;;;;2.17;1.85;;;20.80;90.50;;;;;;5040181;28;20059;-70
2022/06/03 12:15:58;;;;;;;5.75;1.67;;;20.80;89.20;;;;;;5051812;28;20069;-70
2022/06/03 12:18:34;;;;;;;3.47;1.08;;;20.60;90.70;;;;;;5048548;28;20728;-71
2022/06/03 12:21:03;;;;;;;2.90;1.70;;;20.50;93.10;;;;;;5045120;28;20505;-70
2022/06/03 12:23:32;;;;;;;6.20;1.50;;;20.70;95.70;;;;;;5059430;28;20581;-70
2022/06/03 12:26:00;;;;;;;3.97;1.50;;;20.90;94.80;;;;;;5051449;28;20401;-70
2022/06/03 12:28:31;;;;;;;4.05;1.60;;;20.90;93.20;;;;;;5050077;28;20489;-69
2022/06/03 12:31:08;;;;;;;2.53;1.42;;;20.70;94.20;;;;;;5045450;28;20550;-69
2022/06/03 12:33:46;;;;;;;2.03;1.42;;;20.80;95.30;;;;;;5045853;28;20408;-69
2022/06/03 12:36:24;;;;;;;2.15;1.42;;;20.80;94.20;;;;;;5049221;28;20044;-69
2022/06/03 12:39:07;;;;;;;4.10;1.38;;;20.70;93.90;;;;;;5050314;28;20063;-69
2022/06/03 12:41:45;;;;;;;2.35;1.27;;;20.90;99.50;;;;;;5048350;28;20049;-70
2022/06/03 12:44:35;;;;;;;2.60;1.55;;;21.00;97.90;;;;;;5049522;28;20528;-72
2022/06/03 12:47:26;;;;;;;4.03;1.45;;;21.10;96.00;;;;;;5052011;28;20093;-70
2022/06/03 12:49:53;;;;;;;2.53;1.30;;;21.10;93.10;;;;;;5050676;28;20052;-69
2022/06/03 12:52:25;;;;;;;1.95;1.05;;;21.00;92.10;;;;;;5045663;28;20098;-70
2022/06/03 12:55:04;;;;;;;6.28;1.38;;;21.10;92.60;;;;;;5053609;28;20051;-70
2022/06/03 12:57:47;;;;;;;4.28;1.83;;;21.10;91.90;;;;;;5043928;28;20080;-69
2022/06/03 13:00:19;;;;;;;1.80;1.00;;;21.00;91.50;;;;;;5045104;28;20048;-71
2022/06/03 13:02:49;;;;;;;3.53;0.82;;;21.00;92.50;;;;;;5053905;28;20459;-70
2022/06/03 13:05:39;;;;;;;1.55;0.80;;;21.10;92.60;;;;;;5047392;28;20075;-70
2022/06/03 13:08:12;;;;;;;1.77;0.63;;;21.10;91.90;;;;;;5043240;28;20049;-71
2022/06/03 13:11:03;;;;;;;0.85;0.85;;;21.10;90.40;;;;;;5052077;28;20110;-71
2022/06/03 13:13:29;;;;;;;1.70;0.85;;;21.10;90.50;;;;;;5049525;28;20584;-71
2022/06/03 13:16:24;;;;;;;1.27;0.70;;;20.90;90.20;;;;;;5053204;28;20052;-70
2022/06/03 13:18:55;;;;;;;1.90;0.90;;;21.00;90.30;;;;;;5054098;28;20056;-70
2022/06/03 13:21:26;;;;;;;1.17;0.70;;;21.10;87.40;;;;;;5053486;28;20090;-70
2022/06/03 13:23:51;;;;;;;3.85;1.00;;;21.10;90.40;;;;;;5045547;28;20056;-71
2022/06/03 13:26:20;;;;;;;3.75;0.90;;;21.20;89.30;;;;;;5050108;28;20045;-71
2022/06/03 13:28:58;;;;;;;5.22;1.05;;;21.20;87.80;;;;;;5047454;28;20052;-71
2022/06/03 13:31:47;;;;;;;1.33;0.90;;;21.30;85.30;;;;;;5053325;28;20055;-70
2022/06/03 13:34:26;;;;;;;2.05;0.85;;;21.30;81.40;;;;;;5043801;28;20099;-71
2022/06/03 13:36:52;;;;;;;2.08;0.70;;;21.30;80.20;;;;;;5050137;28;20061;-71
2022/06/03 13:39:23;;;;;;;2.17;0.82;;;21.40;78.50;;;;;;5049231;28;20047;-72
2022/06/03 13:44:46;;;;;;;3.08;0.80;;;21.50;77.40;;;;;;5048175;28;20052;-71
2022/06/03 13:47:20;;;;;;;3.13;0.70;;;21.50;76.60;;;;;;5043757;28;20052;-69
2022/06/03 13:50:02;;;;;;;1.60;0.63;;;21.40;74.30;;;;;;5049044;28;20056;-74
2022/06/03 13:52:36;;;;;;;1.70;0.82;;;21.40;73.00;;;;;;5049180;28;20147;-71
2022/06/03 13:55:09;;;;;;;5.45;1.27;;;21.40;70.60;;;;;;5049376;28;20084;-71
2022/06/03 13:57:42;;;;;;;1.77;0.50;;;21.50;72.20;;;;;;5059486;28;20049;-70
2022/06/03 14:00:24;;;;;;;1.27;0.60;;;21.50;71.50;;;;;;5044919;28;20115;-72
2022/06/03 14:03:20;;;;;;;3.20;0.55;;;21.60;69.80;;;;;;5046847;28;20773;-71
2022/06/03 14:06:14;;;;;;;0.43;0.32;;;21.70;68.40;;;;;;5031997;28;20060;-71
2022/06/03 14:08:46;;;;;;;1.27;0.60;;;21.80;68.50;;;;;;5041774;28;20059;-71
2022/06/03 14:11:15;;;;;;;1.70;0.60;;;21.80;66.00;;;;;;5045897;28;20045;-70
2022/06/03 14:13:58;;;;;;;2.05;0.45;;;21.80;63.40;;;;;;5046107;28;20052;-70
2022/06/03 14:16:38;;;;;;;1.02;0.30;;;21.80;62.30;;;;;;5054255;28;20053;-70
2022/06/03 14:19:10;;;;;;;1.08;0.50;;;21.70;60.90;;;;;;5043890;28;20057;-71
2022/06/03 14:21:43;;;;;;;0.60;0.60;;;21.70;60.60;;;;;;5049884;28;20060;-70
2022/06/03 14:24:36;;;;;;;1.73;0.63;;;21.70;60.30;;;;;;5051101;28;20068;-71
2022/06/03 14:27:38;;;;;;;5.28;0.68;;;21.60;59.70;;;;;;5048617;28;20060;-71
2022/06/03 14:30:17;;;;;;;2.55;1.17;;;21.50;61.40;;;;;;5046074;28;20049;-70
2022/06/03 14:32:47;;;;;;;1.73;0.60;;;21.60;62.60;;;;;;5048855;28;20033;-70
2022/06/03 14:35:36;;;;;;;2.97;0.57;;;21.80;62.30;;;;;;5047634;28;20048;-72
2022/06/03 14:38:08;;;;;;;1.50;0.60;;;21.80;61.50;;;;;;5055109;28;20128;-71